Time;durP1;ratioP1;P1;durP2;ratioP2;P2;SDS_P1;SDS_P2;PMS_P1;PMS_P2;Temp;Humidity;BMP_temperature;BMP_pressure;BME280_temperature;BME280_humidity;BME280_pressure;Samples;Min_cycle;Max_cycle;Signal;HPM_P1;HPM_P2
2022/10/11 00:00:19;;;;;;;2.90;2.00;;;;;19.30;101270.00;;;;2062624;28;20309;-50
2022/10/11 00:01:19;;;;;;;1.63;1.40;;;;;19.40;101264.00;;;;2061419;28;20706;-50
2022/10/11 00:02:20;;;;;;;2.57;1.80;;;;;19.40;101270.00;;;;2060956;28;20253;-50
2022/10/11 00:03:21;;;;;;;4.30;2.20;;;;;19.40;101263.00;;;;2059127;28;20226;-50
2022/10/11 00:04:21;;;;;;;2.00;1.60;;;;;19.40;101270.00;;;;2056514;28;20224;-50
2022/10/11 00:05:21;;;;;;;2.80;1.83;;;;;19.40;101266.00;;;;2054760;28;20223;-50
2022/10/11 00:06:22;;;;;;;3.30;1.73;;;;;19.30;101265.00;;;;2061434;28;20246;-50
2022/10/11 00:07:22;;;;;;;2.50;1.60;;;;;19.30;101270.00;;;;2058674;28;20265;-49
2022/10/11 00:08:22;;;;;;;1.90;1.53;;;;;19.30;101266.00;;;;2060446;28;20301;-50
2022/10/11 00:09:23;;;;;;;4.50;1.90;;;;;19.30;101276.00;;;;2054886;28;20234;-50
2022/10/11 00:10:23;;;;;;;2.47;1.80;;;;;19.40;101272.00;;;;2054250;28;20269;-50
2022/10/11 00:11:23;;;;;;;3.43;2.67;;;;;19.30;101279.00;;;;2060704;28;20310;-50
2022/10/11 00:12:24;;;;;;;4.17;2.00;;;;;19.40;101279.00;;;;2056837;28;20226;-50
2022/10/11 00:13:25;;;;;;;2.90;1.40;;;;;19.30;101283.00;;;;2054119;28;20262;-50
2022/10/11 00:14:25;;;;;;;4.90;1.73;;;;;19.40;101272.00;;;;2053601;28;20219;-54
2022/10/11 00:15:25;;;;;;;1.97;1.50;;;;;19.30;101279.00;;;;2058136;28;20254;-52
2022/10/11 00:16:26;;;;;;;2.50;1.53;;;;;19.30;101272.00;;;;2062738;28;20291;-52
2022/10/11 00:17:26;;;;;;;3.20;1.73;;;;;19.30;101280.00;;;;2058228;28;20555;-52
2022/10/11 00:18:26;;;;;;;2.80;1.90;;;;;19.30;101216.00;;;;2054922;28;20732;-51
2022/10/11 00:19:26;;;;;;;2.83;1.80;;;;;19.30;101279.00;;;;2054439;28;20588;-51
2022/10/11 00:20:27;;;;;;;2.70;1.60;;;;;19.30;101281.00;;;;2056487;28;20804;-50
2022/10/11 00:21:27;;;;;;;2.40;1.63;;;;;19.30;101278.00;;;;2060540;28;20600;-50
2022/10/11 00:22:27;;;;;;;3.43;1.93;;;;;19.30;101281.00;;;;2060244;28;20361;-50
2022/10/11 00:23:28;;;;;;;2.10;1.87;;;;;19.40;101286.00;;;;2056782;28;20223;-51
2022/10/11 00:24:28;;;;;;;3.90;1.90;;;;;19.30;101284.00;;;;2054328;28;20219;-50
2022/10/11 00:25:28;;;;;;;1.80;1.50;;;;;19.30;101279.00;;;;2060291;28;20234;-50
2022/10/11 00:26:29;;;;;;;2.33;1.67;;;;;19.30;101286.00;;;;2062696;28;20237;-51
2022/10/11 00:27:29;;;;;;;3.00;1.77;;;;;19.30;101286.00;;;;2058717;28;20207;-49
2022/10/11 00:28:29;;;;;;;2.47;1.47;;;;;19.30;101281.00;;;;2062637;28;20235;-50
2022/10/11 00:29:30;;;;;;;2.83;1.60;;;;;19.30;101283.00;;;;2059068;28;20447;-50
2022/10/11 00:30:30;;;;;;;2.80;2.10;;;;;19.30;101289.00;;;;2059018;28;20229;-50
2022/10/11 00:31:31;;;;;;;2.20;1.70;;;;;19.30;101281.00;;;;2062466;28;20215;-51
2022/10/11 00:32:32;;;;;;;3.73;2.00;;;;;19.30;101283.00;;;;2058160;28;20252;-50
2022/10/11 00:33:33;;;;;;;3.35;1.90;;;;;19.30;101290.00;;;;2062620;28;20233;-50
2022/10/11 00:34:33;;;;;;;2.27;1.70;;;;;19.30;101289.00;;;;2058939;28;20570;-51
2022/10/11 00:35:33;;;;;;;2.40;1.50;;;;;19.10;101294.00;;;;2058883;28;20278;-50
2022/10/11 00:36:33;;;;;;;2.20;1.53;;;;;19.30;101294.00;;;;2058686;28;20289;-50
2022/10/11 00:37:35;;;;;;;2.90;1.73;;;;;19.30;101294.00;;;;2061255;28;20305;-50
2022/10/11 00:38:35;;;;;;;2.75;2.20;;;;;19.30;101294.00;;;;2056813;28;20787;-50
2022/10/11 00:39:35;;;;;;;2.30;1.57;;;;;19.30;101294.00;;;;2058207;28;20223;-50
2022/10/11 00:40:36;;;;;;;2.07;1.87;;;;;19.30;101289.00;;;;2062373;28;20215;-50
2022/10/11 00:41:36;;;;;;;2.87;1.90;;;;;19.30;101296.00;;;;2061779;28;20269;-50
2022/10/11 00:42:36;;;;;;;2.20;1.60;;;;;19.30;101298.00;;;;2061093;28;20213;-50
2022/10/11 00:43:37;;;;;;;4.03;1.97;;;;;19.30;101290.00;;;;2055588;28;20215;-50
2022/10/11 00:44:39;;;;;;;2.27;1.97;;;;;19.30;101295.00;;;;2054835;28;20216;-50
2022/10/11 00:45:39;;;;;;;3.20;1.75;;;;;19.30;101300.00;;;;2060980;28;20219;-50
2022/10/11 00:46:41;;;;;;;2.70;1.97;;;;;19.30;101298.00;;;;2056357;28;20208;-50
2022/10/11 00:47:41;;;;;;;2.20;1.50;;;;;19.30;101285.00;;;;2050491;28;20290;-50
2022/10/11 00:48:56;;;;;;;1.70;1.40;;;;;19.30;101298.00;;;;2045833;28;20215;-50
2022/10/11 00:49:58;;;;;;;2.25;1.70;;;;;19.30;101297.00;;;;2054908;28;20301;-50
2022/10/11 00:50:59;;;;;;;2.35;2.10;;;;;19.30;101279.00;;;;2061047;28;20332;-50
2022/10/11 00:52:02;;;;;;;2.35;1.80;;;;;19.30;101296.00;;;;2047338;28;20750;-50
2022/10/11 00:53:06;;;;;;;3.38;2.10;;;;;19.30;101296.00;;;;2052265;28;20212;-50
2022/10/11 00:54:08;;;;;;;2.80;1.83;;;;;19.30;101299.00;;;;2049826;28;20709;-50
2022/10/11 00:55:11;;;;;;;2.33;1.48;;;;;19.30;101277.00;;;;2038276;29;20901;-50
2022/10/11 00:56:16;;;;;;;2.75;1.67;;;;;19.30;101296.00;;;;2041837;28;20275;-49
2022/10/11 00:57:18;;;;;;;2.15;1.70;;;;;19.30;101278.00;;;;2046121;28;20235;-50
2022/10/11 00:58:19;;;;;;;3.00;1.80;;;;;19.30;101286.00;;;;2053534;28;20223;-50
2022/10/11 00:59:24;;;;;;;2.87;1.70;;;;;19.30;101300.00;;;;2057545;28;20251;-50
2022/10/11 01:00:25;;;;;;;2.55;2.00;;;;;19.30;101295.00;;;;2054396;28;20368;-50
2022/10/11 01:01:25;;;;;;;2.70;1.70;;;;;19.30;101290.00;;;;2056329;28;20235;-50
2022/10/11 01:02:25;;;;;;;3.37;1.87;;;;;19.30;101298.00;;;;2058721;28;20297;-50
2022/10/11 01:03:26;;;;;;;2.53;1.70;;;;;19.30;101304.00;;;;2058446;28;20592;-50
2022/10/11 01:04:27;;;;;;;4.53;1.90;;;;;19.30;101298.00;;;;2057673;28;20681;-50
2022/10/11 01:05:27;;;;;;;3.43;1.83;;;;;19.30;101311.00;;;;2052187;28;20229;-50
2022/10/11 01:06:27;;;;;;;2.23;2.00;;;;;19.30;101303.00;;;;2049395;28;20466;-50
2022/10/11 01:07:30;;;;;;;4.23;1.80;;;;;19.30;101309.00;;;;2045731;28;20208;-50
2022/10/11 01:08:30;;;;;;;2.00;1.40;;;;;19.30;101310.00;;;;2046754;28;20244;-50
2022/10/11 01:09:30;;;;;;;3.77;1.70;;;;;19.30;101300.00;;;;2052420;28;20215;-50
2022/10/11 01:10:31;;;;;;;2.40;1.97;;;;;19.30;101302.00;;;;2045756;28;20219;-50
2022/10/11 01:11:31;;;;;;;2.03;1.70;;;;;19.30;101296.00;;;;2056906;28;20286;-50
2022/10/11 01:12:31;;;;;;;3.40;1.90;;;;;19.30;101307.00;;;;2056925;28;20289;-50
2022/10/11 01:13:46;;;;;;;2.80;1.63;;;;;19.30;101307.00;;;;2054985;28;20723;-50
2022/10/11 01:14:49;;;;;;;2.72;1.60;;;;;19.30;101307.00;;;;2051207;28;20220;-50
2022/10/11 01:16:11;;;;;;;3.50;2.00;;;;;19.30;101314.00;;;;2055290;28;20208;-50
2022/10/11 01:17:22;;;;;;;1.52;1.42;;;;;19.30;101309.00;;;;2047221;28;20219;-50
2022/10/11 01:19:14;;;;;;;2.53;1.58;;;;;19.30;101312.00;;;;2050300;28;20722;-50
2022/10/11 01:20:38;;;;;;;2.53;1.42;;;;;19.30;101305.00;;;;2032970;29;20228;-50
2022/10/11 01:21:52;;;;;;;2.63;1.52;;;;;19.30;101315.00;;;;2058325;28;20704;-50
2022/10/11 01:23:10;;;;;;;2.30;1.67;;;;;19.30;101317.00;;;;2050092;28;20222;-50
2022/10/11 01:24:19;;;;;;;2.50;1.73;;;;;19.30;101318.00;;;;2053846;28;20207;-50
2022/10/11 01:25:45;;;;;;;2.25;1.70;;;;;19.30;101319.00;;;;2057748;28;20223;-50
2022/10/11 01:27:10;;;;;;;2.55;1.65;;;;;19.30;101317.00;;;;2058194;28;20211;-50
2022/10/11 01:28:31;;;;;;;3.65;1.70;;;;;19.30;101306.00;;;;2057633;28;20711;-50
2022/10/11 01:29:40;;;;;;;1.83;1.40;;;;;19.30;101314.00;;;;2062859;28;20219;-50
2022/10/11 01:30:41;;;;;;;2.35;1.63;;;;;19.30;101318.00;;;;2062776;28;20242;-51
2022/10/11 01:31:58;;;;;;;2.70;1.80;;;;;19.30;101316.00;;;;2062707;28;20260;-51
2022/10/11 01:33:20;;;;;;;2.58;1.50;;;;;19.30;101321.00;;;;2061145;28;20214;-50
2022/10/11 01:34:44;;;;;;;2.70;1.50;;;;;19.30;101315.00;;;;2062986;28;20226;-50
2022/10/11 01:35:56;;;;;;;2.30;1.60;;;;;19.30;101315.00;;;;2062179;28;20589;-50
2022/10/11 01:37:17;;;;;;;2.38;1.67;;;;;19.30;101317.00;;;;2054859;28;20223;-51
2022/10/11 01:38:37;;;;;;;3.05;1.70;;;;;19.30;101314.00;;;;2062445;28;20223;-50
2022/10/11 01:39:41;;;;;;;2.17;1.50;;;;;19.30;101298.00;;;;2062369;28;20210;-54
2022/10/11 01:40:47;;;;;;;1.83;1.30;;;;;19.30;101318.00;;;;2062649;28;20210;-50
2022/10/11 01:41:49;;;;;;;2.85;1.60;;;;;19.30;101314.00;;;;2061516;28;20215;-51
2022/10/11 01:42:49;;;;;;;2.30;1.60;;;;;19.20;101306.00;;;;2062685;28;20211;-50
2022/10/11 01:43:51;;;;;;;2.90;1.90;;;;;19.30;101317.00;;;;2062687;28;20245;-50
2022/10/11 01:44:51;;;;;;;2.90;1.90;;;;;19.20;101316.00;;;;2047059;28;20223;-50
2022/10/11 01:45:52;;;;;;;2.00;1.50;;;;;19.30;101316.00;;;;2054557;28;20755;-50
2022/10/11 01:46:53;;;;;;;2.58;1.60;;;;;18.90;101313.00;;;;2054345;28;20771;-50
2022/10/11 01:48:04;;;;;;;2.20;1.50;;;;;19.20;101326.00;;;;2061428;28;20301;-49
2022/10/11 01:49:04;;;;;;;3.22;1.70;;;;;19.20;101314.00;;;;2063052;28;20210;-50
2022/10/11 01:50:06;;;;;;;2.27;1.30;;;;;19.20;101317.00;;;;2062654;28;20578;-49
2022/10/11 01:51:07;;;;;;;2.42;1.70;;;;;19.30;101317.00;;;;2063003;28;20780;-50
2022/10/11 01:52:09;;;;;;;1.90;1.30;;;;;19.20;101323.00;;;;2061741;28;20231;-50
2022/10/11 01:53:21;;;;;;;2.60;1.77;;;;;19.30;101317.00;;;;2061537;28;20215;-55
2022/10/11 01:54:27;;;;;;;3.20;2.20;;;;;19.30;101315.00;;;;2062830;28;20219;-49
2022/10/11 01:55:33;;;;;;;2.60;1.55;;;;;19.20;101305.00;;;;2063424;28;20640;-50
2022/10/11 01:57:02;;;;;;;2.10;1.40;;;;;19.30;101305.00;;;;2053515;28;20743;-50
2022/10/11 01:58:14;;;;;;;2.22;1.50;;;;;19.30;101313.00;;;;2062247;28;20385;-50
2022/10/11 01:59:44;;;;;;;1.65;1.55;;;;;19.20;101317.00;;;;2062400;28;20242;-49
2022/10/11 02:01:07;;;;;;;2.15;1.45;;;;;19.30;101325.00;;;;2062475;28;20211;-49
2022/10/11 02:02:27;;;;;;;3.10;1.60;;;;;19.20;101313.00;;;;2060574;28;20230;-49
2022/10/11 02:03:34;;;;;;;2.67;1.73;;;;;19.20;101314.00;;;;2058449;28;20226;-50
2022/10/11 02:04:56;;;;;;;2.45;1.45;;;;;19.20;101314.00;;;;2061611;28;21234;-50
2022/10/11 02:05:58;;;;;;;2.83;1.48;;;;;19.20;101319.00;;;;2054805;28;20212;-49
2022/10/11 02:07:06;;;;;;;3.67;1.75;;;;;19.20;101317.00;;;;2054569;28;20208;-50
2022/10/11 02:08:16;;;;;;;1.70;1.52;;;;;19.30;101324.00;;;;2054086;28;20231;-51
2022/10/11 02:09:35;;;;;;;1.90;1.40;;;;;19.20;101317.00;;;;2054340;28;20207;-51
2022/10/11 02:10:46;;;;;;;3.72;2.00;;;;;19.20;101321.00;;;;2054511;28;20246;-50
2022/10/11 02:11:47;;;;;;;2.58;1.52;;;;;19.20;101313.00;;;;2043662;28;20220;-52
2022/10/11 02:12:50;;;;;;;2.73;1.47;;;;;19.20;101314.00;;;;2046883;28;20227;-51
2022/10/11 02:14:12;;;;;;;3.17;1.65;;;;;19.20;101312.00;;;;2058789;28;20735;-50
2022/10/11 02:15:12;;;;;;;3.55;1.90;;;;;19.20;101323.00;;;;2062353;28;20245;-50
2022/10/11 02:16:15;;;;;;;1.80;1.43;;;;;19.20;101321.00;;;;2054303;28;20225;-55
2022/10/11 02:17:23;;;;;;;2.00;1.55;;;;;19.20;101314.00;;;;2062466;28;20247;-50
2022/10/11 02:18:25;;;;;;;2.00;1.55;;;;;19.20;101317.00;;;;2056893;28;20254;-50
2022/10/11 02:19:28;;;;;;;1.90;1.65;;;;;19.20;101325.00;;;;2046184;28;20278;-50
2022/10/11 02:20:29;;;;;;;3.47;1.70;;;;;19.20;101321.00;;;;2046772;28;20223;-51
2022/10/11 02:21:30;;;;;;;1.90;1.50;;;;;19.20;101320.00;;;;2053954;28;20648;-51
2022/10/11 02:22:33;;;;;;;1.50;1.17;;;;;19.20;101317.00;;;;2053379;28;20216;-50
2022/10/11 02:23:47;;;;;;;1.95;1.52;;;;;19.20;101311.00;;;;2052114;28;20224;-50
2022/10/11 02:24:49;;;;;;;1.98;1.52;;;;;19.20;101320.00;;;;2059521;28;20301;-50
2022/10/11 02:25:49;;;;;;;1.90;1.60;;;;;19.20;101319.00;;;;2054198;28;20225;-50
2022/10/11 02:26:53;;;;;;;2.10;1.77;;;;;19.20;101318.00;;;;2061624;28;21066;-50
2022/10/11 02:27:54;;;;;;;2.30;1.30;;;;;19.20;101316.00;;;;2061363;28;20214;-50
2022/10/11 02:28:55;;;;;;;1.88;1.30;;;;;19.20;101320.00;;;;2062009;28;20757;-50
2022/10/11 02:29:56;;;;;;;2.57;1.50;;;;;19.20;101318.00;;;;2061534;28;20215;-50
2022/10/11 02:30:57;;;;;;;1.80;1.43;;;;;19.20;101321.00;;;;2053955;28;20491;-50
2022/10/11 02:31:57;;;;;;;2.25;1.50;;;;;19.20;101318.00;;;;2053160;28;20587;-49
2022/10/11 02:32:58;;;;;;;1.60;1.10;;;;;19.30;101327.00;;;;2053813;28;20222;-50
2022/10/11 02:34:06;;;;;;;1.57;1.20;;;;;19.20;101327.00;;;;2052866;28;20703;-49
2022/10/11 02:35:07;;;;;;;2.20;1.40;;;;;19.20;101320.00;;;;2062154;28;20234;-50
2022/10/11 02:36:12;;;;;;;2.20;1.33;;;;;19.20;101328.00;;;;2061571;28;20265;-50
2022/10/11 02:37:18;;;;;;;2.50;1.40;;;;;19.20;101324.00;;;;2062060;28;20234;-51
2022/10/11 02:38:20;;;;;;;1.95;1.48;;;;;19.20;101332.00;;;;2054782;28;20220;-50
2022/10/11 02:39:43;;;;;;;1.90;1.60;;;;;19.20;101336.00;;;;2054586;28;20339;-50
2022/10/11 02:40:45;;;;;;;2.00;1.20;;;;;19.20;101324.00;;;;2061679;28;20601;-49
2022/10/11 02:41:46;;;;;;;1.83;1.27;;;;;19.20;101334.00;;;;2062022;28;20312;-50
2022/10/11 02:43:00;;;;;;;2.50;1.30;;;;;19.20;101323.00;;;;2061727;28;20233;-49
2022/10/11 02:44:05;;;;;;;1.58;1.35;;;;;19.20;101332.00;;;;2061832;28;20203;-49
2022/10/11 02:45:12;;;;;;;2.25;1.40;;;;;19.20;101336.00;;;;2062232;28;20305;-50
2022/10/11 02:46:12;;;;;;;1.55;1.25;;;;;19.20;101332.00;;;;2057725;28;20294;-50
2022/10/11 02:47:12;;;;;;;2.70;1.20;;;;;19.20;101314.00;;;;2059816;28;20215;-50
2022/10/11 02:48:13;;;;;;;3.13;1.57;;;;;19.20;101339.00;;;;2062297;28;20284;-50
2022/10/11 02:49:13;;;;;;;2.00;1.20;;;;;19.20;101338.00;;;;2062115;28;20219;-50
2022/10/11 02:50:14;;;;;;;2.80;1.40;;;;;19.20;101339.00;;;;2062044;28;20218;-50
2022/10/11 02:51:15;;;;;;;2.10;1.80;;;;;19.20;101336.00;;;;2054204;28;20306;-49
2022/10/11 02:52:15;;;;;;;2.53;1.40;;;;;19.20;101342.00;;;;2043723;28;20822;-49
2022/10/11 02:53:16;;;;;;;2.67;1.80;;;;;19.20;101339.00;;;;2046264;28;20229;-50
2022/10/11 02:54:17;;;;;;;1.53;1.20;;;;;19.20;101338.00;;;;2054976;28;20231;-49
2022/10/11 02:55:17;;;;;;;2.00;1.50;;;;;19.20;101335.00;;;;2054991;28;20270;-50
2022/10/11 02:56:17;;;;;;;1.90;1.50;;;;;19.20;101333.00;;;;2054930;28;20227;-51
2022/10/11 02:57:18;;;;;;;1.90;1.27;;;;;19.20;101336.00;;;;2053821;28;20607;-50
2022/10/11 02:58:19;;;;;;;2.00;1.50;;;;;19.20;101341.00;;;;2054146;28;20243;-49
2022/10/11 02:59:19;;;;;;;2.70;1.60;;;;;19.20;101344.00;;;;2054361;28;20218;-52
2022/10/11 03:00:19;;;;;;;2.10;1.47;;;;;19.20;101339.00;;;;2054990;28;20591;-51
2022/10/11 03:01:20;;;;;;;2.90;1.70;;;;;19.20;101341.00;;;;2054858;28;20688;-52
2022/10/11 03:02:20;;;;;;;1.50;1.33;;;;;19.20;101334.00;;;;2053987;28;20262;-49
2022/10/11 03:03:20;;;;;;;1.97;1.43;;;;;19.20;101339.00;;;;2054745;28;20223;-53
2022/10/11 03:04:21;;;;;;;2.07;1.20;;;;;19.20;101343.00;;;;2054738;28;20708;-50
2022/10/11 03:05:21;;;;;;;2.10;1.50;;;;;19.20;101358.00;;;;2054963;28;20221;-51
2022/10/11 03:06:21;;;;;;;2.07;1.50;;;;;19.20;101342.00;;;;2047800;28;20773;-50
2022/10/11 03:07:22;;;;;;;2.13;1.47;;;;;19.20;101346.00;;;;2062134;28;20707;-50
2022/10/11 03:08:22;;;;;;;2.27;1.30;;;;;19.20;101347.00;;;;2069760;28;20218;-51
2022/10/11 03:09:22;;;;;;;2.47;1.47;;;;;19.20;101361.00;;;;2062785;28;20734;-50
2022/10/11 03:10:22;;;;;;;1.50;1.00;;;;;19.20;101352.00;;;;2062577;28;20246;-50
2022/10/11 03:11:23;;;;;;;2.20;1.20;;;;;19.20;101352.00;;;;2062723;28;20663;-51
2022/10/11 03:12:23;;;;;;;2.03;1.53;;;;;19.20;101369.00;;;;2061985;28;20592;-49
2022/10/11 03:13:23;;;;;;;1.70;1.20;;;;;19.20;101357.00;;;;2062159;28;20214;-50
2022/10/11 03:14:24;;;;;;;2.77;1.50;;;;;19.20;101350.00;;;;2059658;28;20226;-50
2022/10/11 03:15:24;;;;;;;1.57;1.10;;;;;19.20;101358.00;;;;2054705;28;20211;-50
2022/10/11 03:16:24;;;;;;;1.90;1.07;;;;;19.20;101378.00;;;;2054898;28;20216;-49
2022/10/11 03:17:26;;;;;;;3.13;1.57;;;;;19.20;101352.00;;;;2054699;28;20268;-50
2022/10/11 03:18:26;;;;;;;1.80;1.02;;;;;19.20;101358.00;;;;2054878;28;20235;-50
2022/10/11 03:19:26;;;;;;;2.60;1.40;;;;;19.20;101364.00;;;;2053974;28;20310;-50
2022/10/11 03:20:27;;;;;;;1.80;1.40;;;;;19.20;101364.00;;;;2054776;28;20578;-50
2022/10/11 03:21:27;;;;;;;3.10;1.20;;;;;19.20;101357.00;;;;2054527;28;20584;-50
2022/10/11 03:22:27;;;;;;;1.73;1.10;;;;;19.20;101352.00;;;;2053877;28;20670;-50
2022/10/11 03:23:28;;;;;;;2.70;1.23;;;;;19.20;101360.00;;;;2054453;28;20591;-50
2022/10/11 03:24:28;;;;;;;2.90;1.17;;;;;19.20;101363.00;;;;2058801;28;20578;-50
2022/10/11 03:25:28;;;;;;;2.23;1.07;;;;;19.20;101368.00;;;;2062858;28;20218;-50
2022/10/11 03:26:29;;;;;;;2.03;1.20;;;;;19.20;101369.00;;;;2062775;28;20226;-50
2022/10/11 03:27:29;;;;;;;1.80;1.57;;;;;19.20;101361.00;;;;2062583;28;20219;-50
2022/10/11 03:28:30;;;;;;;2.10;1.43;;;;;19.20;101371.00;;;;2058359;28;20212;-50
2022/10/11 03:29:30;;;;;;;2.77;1.57;;;;;19.20;101376.00;;;;2055661;28;20580;-50
2022/10/11 03:30:30;;;;;;;2.80;1.57;;;;;19.20;101372.00;;;;2062510;28;20215;-50
2022/10/11 03:31:31;;;;;;;1.93;1.50;;;;;19.20;101367.00;;;;2062612;28;20226;-50
2022/10/11 03:32:31;;;;;;;1.50;1.13;;;;;19.20;101373.00;;;;2061653;28;20698;-50
2022/10/11 03:33:31;;;;;;;1.80;1.30;;;;;19.20;101378.00;;;;2062547;28;20726;-50
2022/10/11 03:34:32;;;;;;;1.97;1.47;;;;;19.20;101371.00;;;;2062466;28;20815;-51
2022/10/11 03:35:32;;;;;;;2.20;1.60;;;;;19.20;101370.00;;;;2062454;28;20246;-50
2022/10/11 03:36:32;;;;;;;1.90;1.30;;;;;19.20;101379.00;;;;2062360;28;20688;-49
2022/10/11 03:37:33;;;;;;;2.20;1.00;;;;;19.20;101378.00;;;;2062590;28;20273;-50
2022/10/11 03:38:33;;;;;;;1.63;1.00;;;;;18.90;101379.00;;;;2062599;28;20264;-50
2022/10/11 03:39:33;;;;;;;2.00;1.30;;;;;19.10;101381.00;;;;2062605;28;20214;-50
2022/10/11 03:40:34;;;;;;;1.30;1.00;;;;;19.20;101383.00;;;;2062433;28;20214;-50
2022/10/11 03:41:34;;;;;;;2.10;1.50;;;;;19.20;101381.00;;;;2062371;28;20682;-50
2022/10/11 03:42:35;;;;;;;1.90;1.50;;;;;19.10;101386.00;;;;2061579;28;20711;-50
2022/10/11 03:43:35;;;;;;;3.13;1.70;;;;;19.20;101380.00;;;;2062126;28;20774;-49
2022/10/11 03:44:35;;;;;;;2.53;1.50;;;;;19.10;101386.00;;;;2062059;28;20225;-49
2022/10/11 03:45:36;;;;;;;2.30;1.27;;;;;19.20;101380.00;;;;2062501;28;20221;-50
2022/10/11 03:46:36;;;;;;;1.67;1.00;;;;;19.20;101383.00;;;;2062415;28;20215;-51
2022/10/11 03:47:37;;;;;;;2.97;1.30;;;;;19.20;101385.00;;;;2062475;28;20242;-50
2022/10/11 03:48:37;;;;;;;2.08;1.30;;;;;19.20;101384.00;;;;2061780;28;20233;-51
2022/10/11 03:49:38;;;;;;;2.00;1.30;;;;;19.20;101384.00;;;;2061698;28;20671;-50
2022/10/11 03:50:38;;;;;;;1.87;1.40;;;;;19.20;101386.00;;;;2062471;28;20211;-51
2022/10/11 03:51:38;;;;;;;1.77;1.10;;;;;19.10;101385.00;;;;2062110;28;20222;-50
2022/10/11 03:52:39;;;;;;;2.80;1.30;;;;;19.10;101389.00;;;;2061575;28;20691;-50
2022/10/11 03:53:39;;;;;;;1.70;1.40;;;;;19.10;101388.00;;;;2062347;28;20750;-49
2022/10/11 03:54:39;;;;;;;1.50;0.93;;;;;19.10;101386.00;;;;2062529;28;20695;-50
2022/10/11 03:55:40;;;;;;;2.60;1.50;;;;;19.10;101390.00;;;;2062362;28;20203;-49
2022/10/11 03:56:40;;;;;;;1.90;1.27;;;;;19.10;101382.00;;;;2059651;28;20214;-51
2022/10/11 03:57:40;;;;;;;3.07;1.40;;;;;19.10;101391.00;;;;2053972;28;20243;-50
2022/10/11 03:58:41;;;;;;;1.53;1.20;;;;;19.10;101400.00;;;;2054076;28;20203;-50
2022/10/11 03:59:41;;;;;;;1.47;1.27;;;;;19.10;101394.00;;;;2053828;28;20211;-49
2022/10/11 04:00:41;;;;;;;2.07;1.13;;;;;19.10;101395.00;;;;2054031;28;20664;-50
2022/10/11 04:01:42;;;;;;;1.40;1.10;;;;;19.10;101390.00;;;;2053855;28;20747;-50
2022/10/11 04:02:42;;;;;;;1.70;1.10;;;;;19.20;101405.00;;;;2052709;28;20208;-49
2022/10/11 04:03:42;;;;;;;1.43;0.90;;;;;19.10;101394.00;;;;2054065;28;20266;-49
2022/10/11 04:04:43;;;;;;;2.23;1.33;;;;;19.10;101396.00;;;;2054134;28;20557;-51
2022/10/11 04:05:43;;;;;;;1.90;1.10;;;;;19.10;101394.00;;;;2054255;28;20207;-50
2022/10/11 04:06:44;;;;;;;2.57;1.50;;;;;19.10;101395.00;;;;2054140;28;20270;-50
2022/10/11 04:07:44;;;;;;;1.80;1.10;;;;;19.10;101394.00;;;;2054064;28;20246;-50
2022/10/11 04:08:44;;;;;;;1.20;1.10;;;;;19.10;101388.00;;;;2054535;28;20228;-50
2022/10/11 04:09:45;;;;;;;2.30;1.30;;;;;19.10;101398.00;;;;2053877;28;20204;-49
2022/10/11 04:10:46;;;;;;;2.30;1.17;;;;;19.10;101396.00;;;;2054540;28;20752;-49
2022/10/11 04:11:47;;;;;;;1.95;1.60;;;;;19.20;101402.00;;;;2058526;28;20571;-49
2022/10/11 04:12:47;;;;;;;2.60;1.40;;;;;19.10;101402.00;;;;2061845;28;20218;-50
2022/10/11 04:13:47;;;;;;;2.27;1.13;;;;;19.10;101393.00;;;;2055889;28;20236;-50
2022/10/11 04:14:48;;;;;;;1.73;1.10;;;;;19.10;101401.00;;;;2054459;28;20241;-50
2022/10/11 04:15:48;;;;;;;2.50;1.37;;;;;19.10;101393.00;;;;2054224;28;20203;-51
2022/10/11 04:16:48;;;;;;;2.63;1.33;;;;;19.10;101409.00;;;;2054669;28;20326;-50
2022/10/11 04:17:49;;;;;;;1.93;1.30;;;;;19.10;101397.00;;;;2054382;28;20219;-50
2022/10/11 04:18:49;;;;;;;2.70;1.33;;;;;19.10;101415.00;;;;2054302;28;20222;-50
2022/10/11 04:19:49;;;;;;;1.83;1.10;;;;;19.10;101410.00;;;;2058002;28;20741;-49
2022/10/11 04:20:49;;;;;;;1.80;1.27;;;;;19.10;101399.00;;;;2055647;28;20681;-50
2022/10/11 04:21:50;;;;;;;2.10;1.20;;;;;19.10;101408.00;;;;2061002;28;21063;-50
2022/10/11 04:22:50;;;;;;;1.57;1.10;;;;;19.10;101405.00;;;;2062133;28;20223;-50
2022/10/11 04:23:51;;;;;;;1.50;1.10;;;;;19.10;101411.00;;;;2061398;28;20321;-50
2022/10/11 04:24:51;;;;;;;2.10;1.20;;;;;19.10;101411.00;;;;2062183;28;21227;-50
2022/10/11 04:25:51;;;;;;;2.80;1.47;;;;;19.10;101414.00;;;;2061667;28;20231;-49
2022/10/11 04:26:52;;;;;;;2.07;1.13;;;;;19.10;101413.00;;;;2061531;28;20317;-50
2022/10/11 04:27:52;;;;;;;2.10;1.30;;;;;19.10;101415.00;;;;2062323;28;20232;-49
2022/10/11 04:28:52;;;;;;;1.70;1.30;;;;;19.10;101418.00;;;;2062471;28;20241;-51
2022/10/11 04:29:53;;;;;;;1.60;1.10;;;;;19.10;101412.00;;;;2062205;28;20243;-50
2022/10/11 04:30:53;;;;;;;1.43;0.90;;;;;19.10;101407.00;;;;2062222;28;20246;-50
2022/10/11 04:31:53;;;;;;;2.10;1.20;;;;;19.10;101414.00;;;;2061446;28;20249;-50
2022/10/11 04:32:54;;;;;;;2.20;1.20;;;;;19.10;101419.00;;;;2061878;28;20223;-50
2022/10/11 04:33:55;;;;;;;2.00;1.40;;;;;19.10;101419.00;;;;2062245;28;20242;-50
2022/10/11 04:34:56;;;;;;;1.40;0.88;;;;;19.10;101420.00;;;;2059901;28;20406;-49
2022/10/11 04:35:56;;;;;;;1.83;1.17;;;;;19.10;101404.00;;;;2061615;28;20253;-50
2022/10/11 04:36:56;;;;;;;1.57;1.30;;;;;19.10;101422.00;;;;2062175;28;20218;-50
2022/10/11 04:37:57;;;;;;;1.20;1.00;;;;;19.10;101422.00;;;;2062347;28;20306;-50
2022/10/11 04:38:57;;;;;;;2.03;1.20;;;;;19.10;101415.00;;;;2062493;28;20235;-50
2022/10/11 04:39:58;;;;;;;1.83;1.40;;;;;19.10;101419.00;;;;2062250;28;20210;-51
2022/10/11 04:41:08;;;;;;;1.30;1.00;;;;;19.10;101417.00;;;;2062276;28;20214;-50
2022/10/11 04:42:08;;;;;;;3.10;1.45;;;;;19.10;101425.00;;;;2053019;28;20215;-49
2022/10/11 04:43:09;;;;;;;1.53;1.10;;;;;19.10;101424.00;;;;2054166;28;20691;-51
2022/10/11 04:44:09;;;;;;;1.83;1.20;;;;;19.10;101421.00;;;;2053541;28;20695;-50
2022/10/11 04:45:09;;;;;;;1.63;1.23;;;;;19.10;101418.00;;;;2054337;28;20718;-50
2022/10/11 04:46:10;;;;;;;2.30;1.43;;;;;19.10;101422.00;;;;2054193;28;20641;-50
2022/10/11 04:47:10;;;;;;;1.77;1.37;;;;;19.10;101429.00;;;;2054375;28;20219;-50
2022/10/11 04:48:10;;;;;;;1.97;1.20;;;;;19.10;101432.00;;;;2054365;28;20215;-50
2022/10/11 04:49:11;;;;;;;2.57;1.70;;;;;19.10;101421.00;;;;2054103;28;20572;-50
2022/10/11 04:50:11;;;;;;;1.50;1.10;;;;;19.10;101423.00;;;;2054137;28;20699;-51
2022/10/11 04:51:11;;;;;;;1.27;1.10;;;;;19.10;101418.00;;;;2054082;28;20696;-50
2022/10/11 04:52:12;;;;;;;2.20;1.33;;;;;19.10;101427.00;;;;2053119;28;20691;-50
2022/10/11 04:53:12;;;;;;;2.53;1.47;;;;;19.10;101416.00;;;;2053816;28;21064;-51
2022/10/11 04:54:12;;;;;;;1.63;1.50;;;;;19.10;101421.00;;;;2054275;28;20212;-51
2022/10/11 04:55:13;;;;;;;1.70;1.50;;;;;19.10;101426.00;;;;2054260;28;20227;-50
2022/10/11 04:56:15;;;;;;;1.73;1.20;;;;;19.10;101430.00;;;;2054103;28;20219;-50
2022/10/11 04:57:16;;;;;;;5.70;1.40;;;;;19.10;101430.00;;;;2049333;28;20223;-50
2022/10/11 04:58:16;;;;;;;1.50;1.07;;;;;19.10;101428.00;;;;2046241;28;20343;-50
2022/10/11 04:59:16;;;;;;;1.67;1.23;;;;;19.10;101430.00;;;;2046940;28;20239;-50
2022/10/11 05:00:17;;;;;;;1.97;1.07;;;;;19.10;101428.00;;;;2047826;28;20560;-50
2022/10/11 05:01:17;;;;;;;1.73;1.47;;;;;19.10;101425.00;;;;2052356;28;20665;-50
2022/10/11 05:02:17;;;;;;;1.20;1.10;;;;;19.10;101426.00;;;;2054782;28;20314;-50
2022/10/11 05:03:17;;;;;;;1.50;1.23;;;;;19.10;101426.00;;;;2055941;28;20208;-50
2022/10/11 05:04:18;;;;;;;1.80;1.50;;;;;19.10;101434.00;;;;2055248;28;20212;-51
2022/10/11 05:05:18;;;;;;;2.10;1.47;;;;;19.10;101427.00;;;;2047861;28;20227;-49
2022/10/11 05:06:19;;;;;;;1.77;1.20;;;;;19.10;101434.00;;;;2042014;28;20213;-50
2022/10/11 05:07:19;;;;;;;2.27;1.53;;;;;19.10;101429.00;;;;2047703;28;20243;-50
2022/10/11 05:08:21;;;;;;;1.33;1.23;;;;;19.10;101423.00;;;;2047757;28;20244;-50
2022/10/11 05:09:22;;;;;;;1.55;1.20;;;;;19.10;101431.00;;;;2047695;28;20224;-49
2022/10/11 05:10:22;;;;;;;2.30;1.43;;;;;19.10;101431.00;;;;2046870;28;20832;-50
2022/10/11 05:11:22;;;;;;;2.20;1.23;;;;;19.10;101435.00;;;;2045643;28;20220;-51